Time;durP1;ratioP1;P1;durP2;ratioP2;P2;SDS_P1;SDS_P2;PMS_P1;PMS_P2;Temp;Humidity;BMP_temperature;BMP_pressure;BME280_temperature;BME280_humidity;BME280_pressure;Samples;Min_cycle;Max_cycle;Signal;HPM_P1;HPM_P2
2021/05/13 00:01:34;;;;;;;14.20;11.03;;;;;;;18.28;57.37;99169.65;128036;1101;22364;-76
2021/05/13 00:04:05;;;;;;;12.80;10.33;;;;;;;18.27;58.25;99171.52;127725;1101;24199;-76
2021/05/13 00:06:36;;;;;;;11.73;10.53;;;;;;;18.26;58.97;99164.56;128132;1105;22367;-75
2021/05/13 00:09:10;;;;;;;12.50;11.27;;;;;;;18.26;59.49;99153.03;128023;1104;23295;-75
2021/05/13 00:11:51;;;;;;;11.48;10.40;;;;;;;18.24;59.89;99160.52;128043;1100;23347;-74
2021/05/13 00:14:27;;;;;;;10.50;9.60;;;;;;;18.24;60.41;99157.84;127669;1101;22334;-75
2021/05/13 00:16:58;;;;;;;11.95;10.45;;;;;;;18.20;60.53;99168.22;128022;1105;22368;-75
2021/05/13 00:19:36;;;;;;;11.55;10.45;;;;;;;18.16;60.82;99163.59;128010;1101;22404;-76
2021/05/13 00:22:15;;;;;;;11.30;9.28;;;;;;;18.08;61.37;99173.66;127674;1104;22351;-76
2021/05/13 00:24:48;;;;;;;11.05;10.05;;;;;;;18.01;61.44;99166.87;128023;1104;22507;-74
2021/05/13 00:27:19;;;;;;;11.50;10.33;;;;;;;17.95;61.91;99173.99;128038;1104;22465;-75
2021/05/13 00:29:52;;;;;;;14.38;11.20;;;;;;;17.92;62.50;99173.67;128032;1104;23233;-75
2021/05/13 00:32:36;;;;;;;13.43;12.13;;;;;;;17.87;62.54;99161.06;128011;1103;22374;-74
2021/05/13 00:35:18;;;;;;;14.85;13.35;;;;;;;17.80;62.77;99168.44;128023;1101;22353;-75
2021/05/13 00:37:50;;;;;;;14.00;12.58;;;;;;;17.76;63.06;99162.77;127642;1101;22371;-75
2021/05/13 00:40:26;;;;;;;15.58;14.13;;;;;;;17.72;63.34;99166.13;127692;1105;22371;-75
2021/05/13 00:42:59;;;;;;;15.77;14.27;;;;;;;17.65;63.76;99161.75;128015;1101;23399;-75
2021/05/13 00:45:30;;;;;;;15.53;14.10;;;;;;;17.62;64.11;99166.77;128044;1101;25010;-75
2021/05/13 00:48:12;;;;;;;20.33;14.73;;;;;;;17.60;64.32;99169.70;128083;1101;24232;-76
2021/05/13 00:50:44;;;;;;;14.85;13.45;;;;;;;17.58;64.39;99165.64;128300;1100;22468;-75
2021/05/13 00:53:28;;;;;;;19.83;13.75;;;;;;;17.54;64.71;99165.32;128204;1099;23365;-75
2021/05/13 00:55:59;;;;;;;16.50;15.03;;;;;;;17.51;64.71;99171.14;128055;1101;23174;-76
2021/05/13 00:58:33;;;;;;;16.00;14.53;;;;;;;17.48;65.11;99168.95;128242;1101;22409;-76
2021/05/13 01:01:08;;;;;;;20.25;18.15;;;;;;;17.46;65.03;99167.56;128064;1101;23298;-75
2021/05/13 01:03:43;;;;;;;16.30;14.93;;;;;;;17.42;65.38;99172.58;128237;1101;22366;-75
2021/05/13 01:06:16;;;;;;;18.27;16.53;;;;;;;17.39;66.02;99173.06;128068;1101;22344;-75
2021/05/13 01:08:51;;;;;;;17.38;15.83;;;;;;;17.34;65.68;99160.45;128286;1101;23308;-75
2021/05/13 01:11:22;;;;;;;18.88;16.95;;;;;;;17.32;65.75;99161.73;128039;1102;22341;-74
2021/05/13 01:14:10;;;;;;;19.00;17.28;;;;;;;17.29;66.22;99165.69;128261;1101;22427;-75
2021/05/13 01:19:57;;;;;;;18.17;16.57;;;;;;;17.18;66.53;99175.38;128055;1101;22375;-74
2021/05/13 01:22:33;;;;;;;18.13;16.50;;;;;;;17.17;67.21;99157.75;128093;1101;22357;-75
2021/05/13 01:25:06;;;;;;;17.85;16.05;;;;;;;17.16;66.70;99158.01;128090;1101;22370;-74
2021/05/13 01:27:42;;;;;;;17.90;16.38;;;;;;;17.14;67.12;99152.89;128394;1101;23259;-74
2021/05/13 01:30:16;;;;;;;17.85;16.38;;;;;;;17.12;66.81;99151.51;128254;1101;22772;-74
2021/05/13 01:32:50;;;;;;;18.28;16.68;;;;;;;17.11;67.36;99147.23;128136;1102;22437;-75
2021/05/13 01:35:35;;;;;;;19.60;17.80;;;;;;;17.06;66.84;99147.13;128150;1100;22370;-75
2021/05/13 01:38:24;;;;;;;18.28;16.63;;;;;;;17.03;67.35;99136.95;128130;1101;22340;-75
2021/05/13 01:41:02;;;;;;;19.43;17.73;;;;;;;17.00;67.56;99140.91;128318;1101;22352;-74
2021/05/13 01:43:36;;;;;;;19.05;17.05;;;;;;;17.02;67.53;99145.98;128356;1101;22344;-74
2021/05/13 01:46:07;;;;;;;24.10;22.03;;;;;;;17.03;67.52;99139.63;128298;1099;22712;-74
2021/05/13 01:48:44;;;;;;;27.23;24.90;;;;;;;17.02;68.22;99135.31;128112;1099;25252;-74
2021/05/13 01:51:16;;;;;;;26.50;24.00;;;;;;;17.00;67.64;99124.09;128243;1101;22354;-74
2021/05/13 01:53:54;;;;;;;27.65;24.68;;;;;;;16.98;68.13;99123.52;128277;1101;22375;-74
2021/05/13 01:56:26;;;;;;;25.50;23.10;;;;;;;16.96;68.59;99123.77;128244;1101;22352;-76
2021/05/13 01:58:58;;;;;;;25.48;23.18;;;;;;;16.94;68.49;99113.31;128177;1103;22365;-76
2021/05/13 02:01:31;;;;;;;27.20;24.95;;;;;;;16.96;68.42;99121.09;128352;1101;22455;-77
2021/05/13 02:04:03;;;;;;;29.48;26.88;;;;;;;16.93;68.61;99109.04;128284;1101;22383;-75
2021/05/13 02:06:34;;;;;;;32.63;29.48;;;;;;;16.95;69.16;99122.13;128303;1101;22396;-76
2021/05/13 02:09:04;;;;;;;33.65;30.25;;;;;;;16.95;68.75;99111.45;128268;1100;22355;-76
2021/05/13 02:11:35;;;;;;;34.30;31.47;;;;;;;16.93;68.73;99111.70;128278;1101;22353;-75
2021/05/13 02:14:06;;;;;;;40.85;36.90;;;;;;;16.94;68.93;99115.18;128101;1100;23300;-75
2021/05/13 02:16:36;;;;;;;43.00;39.13;;;;;;;16.94;69.10;99120.52;128354;1101;22493;-75
2021/05/13 02:19:07;;;;;;;41.05;37.10;;;;;;;16.94;69.11;99110.65;128304;1101;22359;-74
2021/05/13 02:21:40;;;;;;;44.80;40.43;;;;;;;16.92;69.08;99102.06;128248;1101;23101;-74
2021/05/13 02:24:11;;;;;;;46.25;41.68;;;;;;;16.87;69.08;99106.52;128090;1099;24157;-75
2021/05/13 02:26:54;;;;;;;44.90;40.33;;;;;;;16.83;68.86;99108.05;128095;1099;24505;-75
2021/05/13 02:29:26;;;;;;;46.53;42.25;;;;;;;16.82;69.48;99114.41;128090;1102;22367;-74
2021/05/13 02:31:57;;;;;;;;;;;;;;;16.75;69.34;99098.56;128283;1101;23619;-75
2021/05/13 02:34:28;;;;;;;59.47;53.00;;;;;;;16.69;69.44;99099.47;128311;1099;21261;-75
2021/05/13 02:36:58;;;;;;;61.18;54.88;;;;;;;16.69;69.73;99102.14;128290;1101;22352;-75
2021/05/13 02:39:32;;;;;;;59.73;53.97;;;;;;;16.69;69.32;99102.98;128297;1101;22284;-74
2021/05/13 02:42:05;;;;;;;58.45;52.80;;;;;;;16.67;69.70;99094.39;128276;1101;22361;-74
2021/05/13 02:44:38;;;;;;;54.83;49.43;;;;;;;16.66;69.61;99091.95;128294;1101;25111;-74
2021/05/13 02:47:10;;;;;;;51.30;46.40;;;;;;;16.64;69.97;99092.20;128114;1101;22343;-75
2021/05/13 02:49:49;;;;;;;50.65;45.58;;;;;;;16.61;69.81;99086.53;128286;1099;22349;-75
2021/05/13 02:52:24;;;;;;;48.10;43.38;;;;;;;16.58;69.86;99087.01;128282;1101;22370;-75
2021/05/13 02:54:55;;;;;;;52.30;47.10;;;;;;;16.54;69.87;99091.20;128103;1101;22418;-75
2021/05/13 02:57:34;;;;;;;51.13;46.33;;;;;;;16.48;69.93;99091.09;128260;1101;22364;-75
2021/05/13 03:02:46;;;;;;;52.50;47.63;;;;;;;16.41;70.51;99077.09;128187;1101;22409;-74
2021/05/13 03:05:26;;;;;;;51.38;46.25;;;;;;;16.35;70.60;99074.56;128008;1101;22342;-75
2021/05/13 03:08:02;;;;;;;51.55;46.15;;;;;;;16.26;70.39;99084.80;128268;1101;22355;-75
2021/05/13 03:13:21;;;;;;;42.58;38.53;;;;;;;16.19;71.03;99076.94;128293;1101;22370;-74
2021/05/13 03:15:54;;;;;;;45.78;41.50;;;;;;;16.17;71.27;99076.36;128093;1101;22342;-76
2021/05/13 03:18:38;;;;;;;41.93;38.03;;;;;;;16.14;71.41;99070.69;128019;1101;22370;-75
2021/05/13 03:21:17;;;;;;;37.33;33.35;;;;;;;16.13;71.13;99071.74;128363;1100;22362;-76
2021/05/13 03:27:27;;;;;;;;;;;;;;;16.03;70.85;99072.34;128359;1101;22370;-75
2021/05/13 03:29:33;;;;;;;25.93;21.75;;;;;;;15.94;70.25;99073.73;128250;1100;22988;-76
2021/05/13 03:32:10;;;;;;;27.03;20.58;;;;;;;15.93;69.75;99062.28;128109;1101;22355;-75
2021/05/13 03:34:40;;;;;;;21.15;18.95;;;;;;;15.87;69.20;99068.53;128333;1101;22353;-76
2021/05/13 03:37:13;;;;;;;22.30;18.85;;;;;;;15.76;68.89;99066.67;128081;1102;22353;-74
2021/05/13 03:39:48;;;;;;;19.73;17.13;;;;;;;15.68;67.96;99064.38;128029;1105;22356;-75
2021/05/13 03:42:19;;;;;;;22.40;16.93;;;;;;;15.64;68.05;99071.98;127998;1105;22353;-75
2021/05/13 03:44:52;;;;;;;22.58;15.38;;;;;;;15.59;67.52;99065.73;127990;1104;22362;-75
2021/05/13 03:47:23;;;;;;;20.08;14.35;;;;;;;15.55;66.68;99065.38;128030;1101;22369;-76
2021/05/13 03:49:55;;;;;;;15.43;13.85;;;;;;;15.54;66.31;99061.91;128039;1101;22347;-74
2021/05/13 03:52:29;;;;;;;24.00;15.68;;;;;;;15.54;65.85;99061.91;128129;1101;24266;-74
2021/05/13 03:55:03;;;;;;;15.03;13.43;;;;;;;15.56;65.42;99056.38;127993;1104;22437;-75
2021/05/13 03:57:36;;;;;;;17.68;14.28;;;;;;;15.57;64.63;99062.50;128014;1101;22355;-74
2021/05/13 04:00:13;;;;;;;13.98;12.55;;;;;;;15.58;64.39;99059.59;128082;1099;22371;-75
2021/05/13 04:02:52;;;;;;;16.10;11.23;;;;;;;15.61;63.82;99053.81;128026;1101;22358;-73
2021/05/13 04:05:25;;;;;;;13.18;11.08;;;;;;;15.61;63.11;99058.33;128248;1101;22415;-74
2021/05/13 04:07:57;;;;;;;15.93;10.67;;;;;;;15.57;62.45;99055.33;128045;1100;22352;-76
2021/05/13 04:10:28;;;;;;;16.45;10.85;;;;;;;15.52;62.21;99058.66;128044;1101;22389;-76
2021/05/13 04:13:02;;;;;;;12.73;9.68;;;;;;;15.49;61.69;99061.81;127922;1101;22398;-75
2021/05/13 04:15:54;;;;;;;12.15;10.70;;;;;;;15.49;61.45;99056.49;127966;1104;22390;-75
2021/05/13 04:18:25;;;;;;;13.88;10.70;;;;;;;15.54;61.54;99053.92;127610;1104;25212;-75
2021/05/13 04:20:55;;;;;;;11.40;10.23;;;;;;;15.63;61.43;99054.41;127558;1104;24192;-75
2021/05/13 04:23:26;;;;;;;13.75;9.75;;;;;;;15.71;60.93;99051.41;127607;1105;24215;-75
2021/05/13 04:25:56;;;;;;;13.40;8.93;;;;;;;15.82;59.93;99054.28;127531;1105;24533;-75
2021/05/13 04:28:27;;;;;;;11.28;8.03;;;;;;;15.86;59.71;99058.93;127728;1105;22389;-75
2021/05/13 04:30:57;;;;;;;9.93;8.13;;;;;;;15.91;59.07;99053.70;128083;1104;22399;-74
2021/05/13 04:33:33;;;;;;;9.73;7.23;;;;;;;15.93;58.69;99043.63;127987;1104;22381;-74
2021/05/13 04:36:04;;;;;;;10.60;7.45;;;;;;;15.97;58.16;99044.78;127991;1101;22923;-74
2021/05/13 04:38:34;;;;;;;12.93;7.47;;;;;;;16.00;57.49;99041.64;128000;1105;22929;-74
2021/05/13 04:41:03;;;;;;;13.30;7.50;;;;;;;15.98;57.07;99040.25;127637;1101;22484;-74
2021/05/13 04:43:35;;;;;;;9.63;6.73;;;;;;;15.97;56.93;99038.64;127993;1104;22375;-74
2021/05/13 04:46:07;;;;;;;12.58;7.90;;;;;;;15.94;56.52;99039.91;127647;1101;24333;-74
2021/05/13 04:49:13;;;;;;;13.88;6.98;;;;;;;16.02;56.36;99045.92;127983;1104;22387;-75
2021/05/13 04:51:33;;;;;;;9.95;6.98;;;;;;;16.06;55.95;99036.41;127579;1105;22401;-76
2021/05/13 04:54:04;;;;;;;11.80;7.20;;;;;;;16.14;55.89;99036.05;127595;1107;23238;-76
2021/05/13 04:56:36;;;;;;;11.23;6.80;;;;;;;16.20;54.82;99033.25;127709;1103;24086;-76
2021/05/13 04:59:07;;;;;;;12.35;7.13;;;;;;;16.24;54.49;99031.73;127667;1104;25258;-76
2021/05/13 05:01:37;;;;;;;12.18;6.60;;;;;;;16.32;54.32;99019.88;127645;1105;22736;-76
2021/05/13 05:04:08;;;;;;;15.60;7.80;;;;;;;16.46;54.43;99025.73;127635;1106;22369;-76
2021/05/13 05:06:39;;;;;;;12.43;6.78;;;;;;;16.67;54.01;99029.59;127682;1104;25013;-76
2021/05/13 05:09:09;;;;;;;11.00;6.87;;;;;;;16.81;53.34;99011.45;127707;1100;22380;-76
2021/05/13 05:11:38;;;;;;;10.15;6.05;;;;;;;16.98;53.48;99014.94;128094;1101;22378;-76
2021/05/13 05:14:13;;;;;;;16.93;5.83;;;;;;;17.21;53.06;99007.83;128078;1102;22383;-76
2021/05/13 05:16:44;;;;;;;11.13;6.13;;;;;;;17.48;52.45;99018.63;128072;1102;22381;-76
2021/05/13 05:19:15;;;;;;;11.68;6.20;;;;;;;17.77;51.48;99014.80;127982;1105;23218;-76
2021/05/13 05:21:45;;;;;;;11.68;6.45;;;;;;;17.97;50.55;99008.11;127972;1101;24989;-75
2021/05/13 05:24:15;;;;;;;9.40;6.18;;;;;;;18.14;50.34;99010.70;128017;1101;22353;-75
2021/05/13 05:26:45;;;;;;;11.48;5.48;;;;;;;18.38;49.47;99008.56;127560;1108;22382;-75
2021/05/13 05:29:14;;;;;;;9.98;5.48;;;;;;;18.61;49.21;99007.46;127528;1105;22491;-75
2021/05/13 05:31:44;;;;;;;9.68;5.80;;;;;;;18.99;48.75;99009.15;127556;1105;22491;-75
2021/05/13 05:34:15;;;;;;;7.90;4.13;;;;;;;19.27;47.81;99003.48;127511;1107;23259;-76
2021/05/13 05:36:44;;;;;;;9.85;5.30;;;;;;;19.58;46.62;99009.03;127522;1103;22547;-76
2021/05/13 05:39:14;;;;;;;6.70;3.80;;;;;;;19.76;45.68;98994.44;127550;1107;22441;-76
2021/05/13 05:41:44;;;;;;;10.55;3.70;;;;;;;19.91;45.15;98999.05;127563;1104;24874;-77
2021/05/13 05:44:16;;;;;;;10.77;3.67;;;;;;;19.86;44.12;98999.84;127631;1105;22402;-77
2021/05/13 05:46:46;;;;;;;12.10;3.70;;;;;;;19.82;42.84;99008.64;127963;1104;22367;-77
2021/05/13 05:49:18;;;;;;;7.10;3.33;;;;;;;19.90;43.61;99002.80;128042;1104;22353;-77
2021/05/13 05:51:51;;;;;;;9.17;3.27;;;;;;;20.06;43.21;99001.80;128042;1105;22347;-76
2021/05/13 05:54:21;;;;;;;8.03;3.43;;;;;;;20.36;43.24;98998.39;128052;1101;22347;-76
2021/05/13 05:56:51;;;;;;;5.90;3.20;;;;;;;20.70;42.43;98994.45;128081;1101;22368;-76
2021/05/13 05:59:26;;;;;;;9.45;3.60;;;;;;;20.90;41.76;98994.46;128239;1101;22442;-77
2021/05/13 06:01:56;;;;;;;9.45;3.28;;;;;;;21.06;41.18;98996.07;127977;1101;24340;-77
2021/05/13 06:04:29;;;;;;;7.98;3.48;;;;;;;21.05;40.54;98991.75;127808;1105;22384;-77
2021/05/13 06:07:00;;;;;;;12.53;3.75;;;;;;;21.03;40.79;98995.81;127714;1102;24983;-76
2021/05/13 06:09:30;;;;;;;6.63;3.78;;;;;;;21.05;40.83;98997.13;127556;1105;22394;-77
2021/05/13 06:12:00;;;;;;;8.95;4.65;;;;;;;21.12;40.03;99005.70;127574;1108;22486;-76
2021/05/13 06:14:36;;;;;;;10.73;3.80;;;;;;;21.42;40.48;99004.09;127557;1107;22386;-76
2021/05/13 06:17:09;;;;;;;8.68;3.50;;;;;;;21.74;39.65;99005.64;127560;1105;24377;-76
2021/05/13 06:19:39;;;;;;;6.03;3.35;;;;;;;22.10;39.30;98995.55;127584;1101;25053;-76
2021/05/13 06:22:09;;;;;;;8.73;3.90;;;;;;;22.26;38.83;99005.19;128000;1104;22349;-75
2021/05/13 06:24:45;;;;;;;10.78;4.23;;;;;;;22.24;38.70;98993.89;127796;1105;22365;-77
2021/05/13 06:27:16;;;;;;;5.83;3.95;;;;;;;22.26;38.23;98990.94;128070;1102;23701;-76
2021/05/13 06:29:46;;;;;;;8.88;3.55;;;;;;;22.36;38.13;98995.42;128100;1102;22424;-78
2021/05/13 06:32:17;;;;;;;9.45;4.58;;;;;;;22.52;38.44;98995.05;128007;1104;23126;-77
2021/05/13 06:34:52;;;;;;;8.25;4.18;;;;;;;22.76;38.12;98989.79;127597;1105;22478;-76
2021/05/13 06:37:24;;;;;;;6.45;3.98;;;;;;;23.02;37.88;98997.67;127550;1107;22852;-76
2021/05/13 06:39:54;;;;;;;6.43;3.20;;;;;;;23.24;37.01;98995.32;127523;1107;22449;-76
2021/05/13 06:42:24;;;;;;;9.23;3.55;;;;;;;23.32;36.42;98990.40;127563;1108;22370;-78
2021/05/13 06:44:56;;;;;;;7.95;3.23;;;;;;;23.39;36.33;98993.55;127593;1103;24640;-77
2021/05/13 06:47:26;;;;;;;5.80;3.23;;;;;;;23.47;36.23;98998.34;127502;1107;22371;-77
2021/05/13 06:49:59;;;;;;;10.98;4.05;;;;;;;23.71;36.15;98995.67;127153;1104;24489;-77
2021/05/13 06:52:29;;;;;;;6.05;3.10;;;;;;;23.99;36.06;98999.38;127570;1107;22364;-77
2021/05/13 06:55:06;;;;;;;8.08;3.30;;;;;;;24.25;35.39;99004.45;127637;1103;22365;-78
2021/05/13 06:57:35;;;;;;;8.15;3.53;;;;;;;24.53;34.66;99002.75;127592;1107;22498;-76
2021/05/13 07:00:06;;;;;;;6.95;3.50;;;;;;;24.75;34.07;99000.23;127608;1107;22365;-76
2021/05/13 07:02:36;;;;;;;8.70;3.33;;;;;;;24.98;34.40;98997.71;127688;1107;22998;-76
2021/05/13 07:05:09;;;;;;;6.90;3.73;;;;;;;25.17;33.71;99001.20;127160;1106;24581;-76
2021/05/13 07:07:40;;;;;;;9.75;4.00;;;;;;;25.39;34.03;99000.55;127165;1108;22390;-77
2021/05/13 07:10:10;;;;;;;7.13;3.50;;;;;;;25.55;33.77;98992.94;127641;1104;22368;-77
2021/05/13 07:12:41;;;;;;;12.97;3.77;;;;;;;25.52;33.44;98996.23;127518;1108;22471;-77
2021/05/13 07:15:32;;;;;;;6.78;3.30;;;;;;;25.34;33.73;98995.23;127564;1108;22440;-76
2021/05/13 07:18:16;;;;;;;6.95;3.78;;;;;;;25.30;33.33;98995.02;127505;1105;25098;-75
2021/05/13 07:20:47;;;;;;;9.20;4.00;;;;;;;25.30;33.55;98991.52;127578;1105;22500;-77
2021/05/13 07:23:17;;;;;;;8.85;3.45;;;;;;;25.28;33.43;98988.30;127725;1104;22378;-76
2021/05/13 07:25:47;;;;;;;7.38;3.73;;;;;;;25.13;33.60;99000.20;127991;1102;22322;-77
2021/05/13 07:28:17;;;;;;;11.93;4.50;;;;;;;24.91;33.97;98992.69;127942;1101;22377;-77
2021/05/13 07:30:49;;;;;;;6.93;3.53;;;;;;;24.92;34.14;98999.69;127680;1104;22400;-77
2021/05/13 07:33:19;;;;;;;6.18;3.50;;;;;;;24.89;34.02;98993.00;127709;1106;22357;-77
2021/05/13 07:35:49;;;;;;;9.88;3.73;;;;;;;25.03;33.43;98997.64;127843;1105;22457;-77
2021/05/13 07:38:21;;;;;;;10.77;3.70;;;;;;;25.08;33.41;98992.94;128033;1104;22382;-77
2021/05/13 07:40:54;;;;;;;5.88;3.73;;;;;;;25.21;33.55;98987.89;127671;1104;24359;-77
2021/05/13 07:43:26;;;;;;;11.50;3.53;;;;;;;25.51;33.50;98990.03;127544;1105;24273;-77
2021/05/13 07:45:56;;;;;;;11.25;3.55;;;;;;;25.58;32.69;98989.64;127564;1107;22402;-78
2021/05/13 07:48:30;;;;;;;10.83;4.10;;;;;;;25.65;32.64;98991.94;127623;1105;22446;-77
2021/05/13 07:50:59;;;;;;;9.43;4.30;;;;;;;25.68;32.37;98988.64;128060;1101;22377;-76
2021/05/13 07:53:30;;;;;;;;;;;;;;;25.64;32.80;98988.44;127615;1108;23087;-76
2021/05/13 07:56:00;;;;;;;5.35;3.13;;;;;;;25.56;32.63;98978.34;127579;1108;21293;-76
2021/05/13 07:58:30;;;;;;;8.80;3.78;;;;;;;25.66;32.49;98975.43;127555;1108;22415;-77
2021/05/13 08:01:00;;;;;;;9.50;3.35;;;;;;;26.00;32.21;98976.94;127535;1107;23412;-75
2021/05/13 08:03:32;;;;;;;8.30;3.55;;;;;;;26.25;31.96;98965.53;127505;1107;22408;-76
2021/05/13 08:06:04;;;;;;;5.48;2.90;;;;;;;26.56;31.65;98970.30;127528;1108;22488;-76
2021/05/13 08:08:37;;;;;;;15.95;3.73;;;;;;;26.67;31.37;98974.35;127765;1101;25437;-75
2021/05/13 08:11:11;;;;;;;10.48;3.35;;;;;;;26.86;31.60;98967.96;127991;1102;22396;-76
2021/05/13 08:13:41;;;;;;;11.30;3.90;;;;;;;26.98;31.01;98960.05;127589;1103;22494;-74
2021/05/13 08:16:16;;;;;;;9.48;3.33;;;;;;;27.12;30.99;98965.38;127620;1105;22389;-76
2021/05/13 08:18:46;;;;;;;10.83;6.63;;;;;;;27.30;30.82;98963.59;127684;1103;24533;-77
2021/05/13 08:21:17;;;;;;;6.27;3.87;;;;;;;27.47;30.21;98971.01;127731;1103;22346;-75
2021/05/13 08:23:47;;;;;;;6.55;3.45;;;;;;;27.42;30.03;98964.62;127575;1107;23322;-76
2021/05/13 08:26:16;;;;;;;4.43;2.78;;;;;;;27.54;30.35;98972.14;127561;1108;22405;-76
2021/05/13 08:28:46;;;;;;;8.93;3.20;;;;;;;27.66;29.70;98966.14;127562;1104;23162;-76
2021/05/13 08:31:16;;;;;;;6.08;2.75;;;;;;;27.72;29.42;98969.48;127132;1106;22423;-76
2021/05/13 08:33:48;;;;;;;5.38;3.13;;;;;;;27.54;29.89;98960.50;127555;1107;22399;-76
2021/05/13 08:36:21;;;;;;;9.97;3.10;;;;;;;27.60;29.84;98962.76;127511;1105;22379;-77
2021/05/13 08:38:51;;;;;;;4.05;2.65;;;;;;;27.69;29.74;98960.88;126967;1108;22390;-75
2021/05/13 08:41:28;;;;;;;8.13;2.97;;;;;;;27.71;29.66;98959.75;127109;1108;22487;-76
2021/05/13 08:44:01;;;;;;;5.05;2.95;;;;;;;27.76;29.69;98960.45;127552;1107;22469;-75
2021/05/13 08:46:36;;;;;;;8.48;2.63;;;;;;;27.72;29.07;98951.28;127138;1108;22369;-75
2021/05/13 08:49:09;;;;;;;10.20;3.15;;;;;;;27.79;29.69;98950.85;127067;1108;24989;-75
2021/05/13 08:51:40;;;;;;;7.93;2.88;;;;;;;28.03;29.50;98955.88;127080;1106;24290;-76
2021/05/13 08:54:11;;;;;;;7.98;3.25;;;;;;;28.16;29.26;98949.50;127078;1106;22404;-76
2021/05/13 08:56:41;;;;;;;5.75;2.83;;;;;;;28.14;28.76;98955.23;127046;1108;22422;-76
2021/05/13 08:59:15;;;;;;;12.10;3.05;;;;;;;28.07;28.37;98949.48;126976;1108;22389;-77
2021/05/13 09:02:00;;;;;;;13.48;2.75;;;;;;;27.90;28.71;98947.54;126927;1111;22478;-77
2021/05/13 09:04:46;;;;;;;7.60;3.15;;;;;;;27.83;28.72;98954.56;127184;1108;22392;-77
2021/05/13 09:07:31;;;;;;;5.03;2.08;;;;;;;27.91;28.70;98951.84;127602;1108;23306;-77
2021/05/13 09:10:11;;;;;;;7.00;2.90;;;;;;;28.11;28.34;98950.44;127899;1101;22363;-77
2021/05/13 09:13:00;;;;;;;5.88;2.40;;;;;;;28.20;28.07;98947.73;128003;1104;23311;-76
2021/05/13 09:15:33;;;;;;;10.00;2.97;;;;;;;28.23;27.81;98943.59;128037;1104;22395;-77
2021/05/13 09:18:06;;;;;;;5.95;2.75;;;;;;;28.20;28.03;98938.80;128085;1102;22328;-76
2021/05/13 09:20:39;;;;;;;7.95;2.33;;;;;;;28.31;27.67;98937.35;128111;1102;22340;-75
2021/05/13 09:23:21;;;;;;;6.80;2.40;;;;;;;28.33;27.69;98935.92;128167;1102;22508;-77
2021/05/13 09:26:08;;;;;;;8.93;2.75;;;;;;;28.53;27.46;98929.07;128068;1102;22342;-76
2021/05/13 09:28:43;;;;;;;12.20;3.15;;;;;;;28.71;27.01;98931.75;128059;1102;22469;-77
2021/05/13 09:31:36;;;;;;;17.45;4.70;;;;;;;28.73;26.44;98924.88;128022;1101;24153;-77
2021/05/13 09:34:09;;;;;;;15.43;3.85;;;;;;;28.55;26.26;98923.30;128249;1101;22433;-75
2021/05/13 09:36:39;;;;;;;4.38;2.98;;;;;;;28.31;26.17;98924.56;128183;1101;22326;-76
2021/05/13 09:39:51;;;;;;;3.60;2.50;;;;;;;27.97;26.46;98919.93;128080;1101;22343;-76
2021/05/13 09:42:32;;;;;;;6.25;2.95;;;;;;;27.71;26.95;98916.34;128051;1104;22960;-75
2021/05/13 09:45:05;;;;;;;5.38;2.50;;;;;;;27.69;26.86;98914.76;128024;1101;22824;-75
2021/05/13 09:47:37;;;;;;;7.65;2.85;;;;;;;27.64;26.71;98917.60;128049;1101;24867;-76
2021/05/13 09:50:21;;;;;;;6.85;2.30;;;;;;;27.58;27.25;98918.06;128034;1104;22437;-76
2021/05/13 09:52:55;;;;;;;6.48;2.58;;;;;;;27.55;27.52;98915.98;128008;1104;22361;-76
2021/05/13 09:55:34;;;;;;;8.58;3.48;;;;;;;27.71;27.44;98909.00;128038;1101;23373;-76
2021/05/13 09:58:08;;;;;;;6.00;2.70;;;;;;;27.56;27.22;98912.17;127972;1105;22374;-76
2021/05/13 10:00:48;;;;;;;4.38;2.30;;;;;;;27.35;27.13;98903.80;128030;1104;22346;-77
2021/05/13 10:03:24;;;;;;;4.00;2.43;;;;;;;27.11;27.42;98904.95;128069;1101;22349;-76
2021/05/13 10:05:54;;;;;;;5.98;2.55;;;;;;;27.15;27.66;98905.16;128008;1104;22858;-76
2021/05/13 10:08:24;;;;;;;5.78;2.95;;;;;;;27.29;27.47;98903.16;127991;1104;24166;-77
2021/05/13 10:10:55;;;;;;;10.00;2.65;;;;;;;27.31;27.90;98894.70;127968;1104;22740;-77
2021/05/13 10:13:29;;;;;;;4.80;2.38;;;;;;;27.44;27.71;98894.58;128113;1101;22370;-76
2021/05/13 10:16:01;;;;;;;4.70;2.15;;;;;;;27.43;27.43;98892.98;128080;1102;22394;-76
2021/05/13 10:18:42;;;;;;;5.73;2.10;;;;;;;27.51;27.17;98898.75;128050;1100;24282;-76
2021/05/13 10:21:22;;;;;;;10.03;2.97;;;;;;;27.42;27.12;98890.58;128077;1102;22354;-76
2021/05/13 10:23:56;;;;;;;13.70;2.90;;;;;;;26.89;26.84;98876.02;128022;1102;22355;-76
2021/05/13 10:26:32;;;;;;;7.43;2.98;;;;;;;26.57;27.64;98881.73;128132;1101;22356;-75
2021/05/13 10:29:22;;;;;;;3.13;2.15;;;;;;;26.40;27.49;98869.64;128231;1101;22359;-76
2021/05/13 10:32:19;;;;;;;5.05;2.28;;;;;;;26.31;27.93;98878.80;128182;1101;24166;-74
2021/05/13 10:34:57;;;;;;;7.73;2.30;;;;;;;26.21;28.04;98875.23;128085;1101;22357;-71
2021/05/13 10:37:37;;;;;;;6.85;2.40;;;;;;;26.11;28.08;98872.77;128034;1101;22452;-71
2021/05/13 10:43:08;;;;;;;4.43;2.10;;;;;;;25.74;27.48;98866.53;128297;1101;22352;-72
2021/05/13 10:45:45;;;;;;;3.13;2.13;;;;;;;25.52;27.55;98866.45;128031;1102;23103;-70
2021/05/13 10:48:26;;;;;;;6.03;2.58;;;;;;;25.28;27.50;98861.28;128274;1101;22355;-71
2021/05/13 10:51:09;;;;;;;4.87;2.30;;;;;;;25.15;27.80;98857.47;128109;1101;22469;-71
2021/05/13 10:53:48;;;;;;;8.18;2.55;;;;;;;25.09;27.70;98864.86;128048;1103;22356;-71
2021/05/13 10:56:44;;;;;;;2.95;2.03;;;;;;;24.85;27.38;98854.22;128276;1100;25006;-73
2021/05/13 10:59:15;;;;;;;3.87;2.23;;;;;;;24.76;27.61;98852.50;128018;1103;22366;-71
2021/05/13 11:02:00;;;;;;;2.67;2.10;;;;;;;24.71;27.09;98856.10;127963;1104;22360;-73
2021/05/13 11:04:50;;;;;;;6.05;2.50;;;;;;;24.43;26.86;98844.45;128105;1105;22609;-72
2021/05/13 11:07:28;;;;;;;6.53;2.40;;;;;;;24.08;27.26;98841.18;127512;1104;24492;-71
2021/05/13 11:09:59;;;;;;;7.30;2.13;;;;;;;23.81;27.79;98851.84;127595;1108;22377;-71
2021/05/13 11:12:39;;;;;;;5.10;2.90;;;;;;;23.70;27.86;98853.89;127616;1108;22371;-72
2021/05/13 11:15:26;;;;;;;4.38;1.78;;;;;;;23.66;28.00;98839.36;127665;1104;22383;-72
2021/05/13 11:18:07;;;;;;;6.98;2.60;;;;;;;23.68;28.18;98832.59;127589;1108;22420;-75
2021/05/13 11:21:00;;;;;;;6.10;2.03;;;;;;;23.79;28.00;98833.27;127604;1104;22366;-75
2021/05/13 11:23:32;;;;;;;6.00;1.90;;;;;;;23.79;28.48;98838.67;126965;1111;22376;-76
2021/05/13 11:26:10;;;;;;;5.30;2.67;;;;;;;23.80;28.40;98834.87;127071;1111;22383;-75
2021/05/13 11:28:43;;;;;;;6.03;2.18;;;;;;;23.81;27.89;98827.58;127017;1111;22478;-73
2021/05/13 11:31:21;;;;;;;3.70;2.00;;;;;;;23.81;28.27;98830.27;126998;1111;22364;-72
2021/05/13 11:33:58;;;;;;;5.38;1.98;;;;;;;23.68;27.97;98835.29;126721;1114;22428;-75
2021/05/13 11:36:39;;;;;;;6.40;2.13;;;;;;;23.50;28.42;98838.75;126783;1111;22439;-74
2021/05/13 11:39:16;;;;;;;6.70;2.03;;;;;;;23.30;28.62;98828.23;127004;1111;22809;-75
2021/05/13 11:41:50;;;;;;;4.95;2.25;;;;;;;23.27;28.85;98831.51;126977;1108;24508;-77
2021/05/13 11:44:30;;;;;;;3.68;1.93;;;;;;;23.31;28.85;98833.33;127075;1108;22688;-82
2021/05/13 11:47:00;;;;;;;6.15;1.75;;;;;;;23.27;28.92;98831.51;127595;1105;24720;-75
2021/05/13 11:49:39;;;;;;;4.83;2.55;;;;;;;23.17;29.04;98827.84;127562;1105;24498;-76
2021/05/13 11:52:17;;;;;;;7.07;2.50;;;;;;;23.08;29.37;98821.47;127759;1101;22360;-76
2021/05/13 11:54:56;;;;;;;5.43;2.50;;;;;;;23.06;29.60;98814.77;127725;1104;22646;-76
2021/05/13 11:57:28;;;;;;;4.50;2.08;;;;;;;23.06;29.77;98815.59;127581;1108;22380;-76
2021/05/13 11:59:58;;;;;;;8.43;2.95;;;;;;;23.04;29.38;98815.06;127571;1108;23230;-75
2021/05/13 12:02:29;;;;;;;6.50;2.28;;;;;;;23.06;29.65;98825.54;128012;1101;22438;-75
2021/05/13 12:05:09;;;;;;;7.23;2.50;;;;;;;23.05;29.45;98808.58;128005;1105;22355;-79
2021/05/13 12:07:40;;;;;;;8.13;2.33;;;;;;;22.96;29.78;98813.02;127596;1105;22360;-77